createdAt,value
2022-11-10T00:01:12.841Z,14.78
2022-11-10T00:06:33.287Z,14.70
2022-11-10T00:11:54.936Z,14.72
2022-11-10T00:17:15.578Z,14.93
2022-11-10T00:22:36.415Z,14.88
2022-11-10T00:27:59.996Z,14.83
2022-11-10T00:33:20.390Z,15.09
2022-11-10T00:38:41.199Z,15.22
2022-11-10T00:44:02.934Z,15.25
2022-11-10T00:49:23.464Z,15.37
2022-11-10T00:54:43.953Z,15.29
2022-11-10T01:00:07.417Z,15.32
2022-11-10T01:05:27.566Z,15.37
2022-11-10T01:10:47.676Z,15.39
2022-11-10T01:16:10.944Z,15.26
2022-11-10T01:21:31.431Z,15.33
2022-11-10T01:26:51.878Z,15.26
2022-11-10T01:32:13.666Z,15.28
2022-11-10T01:37:34.227Z,14.86
2022-11-10T01:42:56.223Z,14.99
2022-11-10T01:48:21.828Z,15.08
2022-11-10T01:53:43.992Z,14.84
2022-11-10T01:59:09.825Z,14.59
2022-11-10T02:04:31.591Z,14.33
2022-11-10T02:09:52.898Z,14.32
2022-11-10T02:15:14.882Z,14.17
2022-11-10T02:20:36.727Z,14.04
2022-11-10T02:25:58.632Z,13.86
2022-11-10T02:31:18.786Z,13.74
2022-11-10T02:36:39.198Z,13.71
2022-11-10T02:42:00.990Z,13.98
2022-11-10T02:47:21.597Z,14.24
2022-11-10T02:52:42.324Z,14.22
2022-11-10T02:58:03.974Z,14.07
2022-11-10T03:03:24.673Z,13.72
2022-11-10T03:08:45.325Z,13.62
2022-11-10T03:14:06.941Z,13.47
2022-11-10T03:19:27.332Z,13.19
2022-11-10T03:24:47.741Z,13.13
2022-11-10T03:30:10.432Z,12.95
2022-11-10T03:35:30.927Z,12.92
2022-11-10T03:41:17.738Z,12.95
2022-11-10T03:46:33.224Z,12.61
2022-11-10T03:51:53.527Z,12.86
2022-11-10T03:57:14.207Z,13.12
2022-11-10T04:02:35.727Z,13.20
2022-11-10T04:08:16.218Z,13.12
2022-11-10T04:13:55.235Z,12.89
2022-11-10T04:19:17.231Z,12.75
2022-11-10T04:24:37.777Z,12.70
2022-11-10T04:29:58.072Z,12.54
2022-11-10T04:35:20.720Z,12.63
2022-11-10T04:40:41.029Z,12.65
2022-11-10T04:46:01.706Z,12.54
2022-11-10T04:51:25.039Z,12.50
2022-11-10T04:56:45.278Z,12.31
2022-11-10T05:02:05.864Z,12.13
2022-11-10T05:07:27.492Z,12.03
2022-11-10T05:12:48.128Z,12.00
2022-11-10T05:18:08.437Z,11.89
2022-11-10T05:23:39.202Z,11.87
2022-11-10T05:28:59.926Z,11.85
2022-11-10T05:34:20.069Z,11.85
2022-11-10T05:39:41.736Z,11.87
2022-11-10T05:45:02.232Z,11.88
2022-11-10T05:50:22.633Z,11.91
2022-11-10T05:55:44.199Z,11.89
2022-11-10T06:01:05.056Z,11.93
2022-11-10T06:06:25.559Z,11.85
2022-11-10T06:11:47.222Z,11.80
2022-11-10T06:17:07.538Z,12.04
2022-11-10T06:22:27.958Z,12.26
2022-11-10T06:27:49.868Z,12.37
2022-11-10T06:33:10.056Z,12.38
2022-11-10T06:38:30.606Z,12.31
2022-11-10T06:43:52.290Z,12.28
2022-11-10T06:49:13.035Z,12.08
2022-11-10T06:54:33.401Z,12.30
2022-11-10T06:59:55.020Z,12.42
2022-11-10T07:05:15.433Z,12.48
2022-11-10T07:10:36.314Z,12.47
2022-11-10T07:15:57.802Z,12.78
2022-11-10T07:21:18.273Z,12.90
2022-11-10T07:26:38.949Z,12.91
2022-11-10T07:32:00.703Z,13.60
2022-11-10T07:37:21.172Z,14.08
2022-11-10T07:42:41.584Z,14.51
2022-11-10T07:48:04.377Z,15.25
2022-11-10T07:53:25.115Z,15.34
2022-11-10T07:58:46.944Z,14.73
2022-11-10T08:04:08.905Z,14.54
2022-11-10T08:09:29.200Z,15.71
2022-11-10T08:14:49.813Z,19.99
2022-11-10T08:20:11.834Z,22.85
2022-11-10T08:25:35.255Z,21.38
2022-11-10T08:30:56.199Z,20.81
2022-11-10T08:36:17.739Z,21.19
2022-11-10T08:41:37.943Z,26.65
2022-11-10T08:46:58.453Z,31.15
2022-11-10T08:52:20.087Z,33.18
2022-11-10T08:57:40.255Z,34.06
2022-11-10T09:03:04.434Z,33.08
2022-11-10T09:08:26.223Z,26.24
2022-11-10T09:13:46.358Z,23.60
2022-11-10T09:19:06.570Z,21.07
2022-11-10T09:24:31.307Z,20.01
2022-11-10T09:29:51.841Z,19.20
2022-11-10T09:35:13.153Z,18.85
2022-11-10T09:40:43.384Z,18.48
2022-11-10T09:46:06.361Z,18.31
2022-11-10T09:51:27.782Z,18.97
2022-11-10T09:56:49.193Z,18.89
2022-11-10T10:02:16.309Z,18.54
2022-11-10T10:07:40.033Z,19.32
2022-11-10T10:13:10.220Z,24.05
2022-11-10T10:18:34.052Z,21.55
2022-11-10T10:24:15.259Z,21.21
2022-11-10T10:29:39.617Z,21.59
2022-11-10T10:34:59.739Z,21.66
2022-11-10T10:40:20.868Z,21.34
2022-11-10T10:45:42.826Z,20.69
2022-11-10T10:51:03.128Z,20.34
2022-11-10T10:56:25.386Z,19.79
2022-11-10T11:01:47.172Z,19.51
2022-11-10T11:07:20.146Z,23.38
2022-11-10T11:12:40.792Z,25.84
2022-11-10T11:18:03.072Z,31.86
2022-11-10T11:23:38.147Z,35.58
2022-11-10T11:29:03.237Z,36.91
2022-11-10T11:34:26.797Z,36.96
2022-11-10T11:39:53.356Z,32.52
2022-11-10T11:45:16.893Z,26.88
2022-11-10T11:50:41.039Z,24.26
2022-11-10T11:56:07.594Z,25.66
2022-11-10T12:01:44.267Z,23.73
2022-11-10T12:07:13.188Z,22.29
2022-11-10T12:12:48.023Z,21.15
2022-11-10T12:18:13.379Z,20.50
2022-11-10T12:23:39.019Z,19.95
2022-11-10T12:29:03.087Z,19.96
2022-11-10T12:34:29.294Z,20.31
2022-11-10T12:39:54.390Z,20.11
2022-11-10T12:45:18.799Z,19.94
2022-11-10T12:50:41.995Z,19.58
2022-11-10T12:56:06.425Z,19.34
2022-11-10T13:01:27.454Z,19.59
2022-11-10T13:06:48.941Z,19.59
2022-11-10T13:12:18.397Z,19.33
2022-11-10T13:17:54.424Z,19.79
2022-11-10T13:23:25.221Z,19.91
2022-11-10T13:29:02.641Z,20.04
2022-11-10T13:34:33.222Z,19.65
2022-11-10T13:39:53.716Z,19.41
2022-11-10T13:45:28.790Z,19.24
2022-11-10T13:50:50.899Z,19.26
2022-11-10T13:56:17.010Z,19.36
2022-11-10T14:01:38.763Z,19.05
2022-11-10T14:06:59.204Z,18.91
2022-11-10T14:12:23.645Z,18.67
2022-11-10T14:17:49.576Z,18.09
2022-11-10T14:23:13.529Z,17.98
2022-11-10T14:28:34.455Z,17.86
2022-11-10T14:33:57.099Z,17.80
2022-11-10T14:39:17.389Z,17.73
2022-11-10T14:44:37.807Z,17.90
2022-11-10T14:50:16.642Z,17.91
2022-11-10T14:55:36.897Z,17.82
2022-11-10T15:00:57.131Z,17.84
2022-11-10T15:06:18.936Z,17.69
2022-11-10T15:11:40.287Z,17.66
2022-11-10T15:17:01.122Z,17.62
2022-11-10T15:22:29.498Z,17.45
2022-11-10T15:27:56.526Z,17.39
2022-11-10T15:33:25.409Z,17.41
2022-11-10T15:39:03.105Z,17.21
2022-11-10T15:44:24.378Z,17.14
2022-11-10T15:49:44.694Z,16.94
2022-11-10T15:55:19.334Z,16.64
2022-11-10T16:00:40.353Z,16.40
2022-11-10T16:06:01.043Z,16.02
2022-11-10T16:11:25.983Z,15.89
2022-11-10T16:16:47.721Z,16.01
2022-11-10T16:22:09.834Z,16.12
2022-11-10T16:27:34.398Z,15.70
2022-11-10T16:32:55.318Z,15.39
2022-11-10T16:38:17.720Z,15.21
2022-11-10T16:43:39.577Z,15.01
2022-11-10T16:49:00.926Z,14.67
2022-11-10T16:54:21.653Z,14.57
2022-11-10T16:59:45.788Z,14.81
2022-11-10T17:05:06.731Z,14.72
2022-11-10T17:10:27.430Z,14.68
2022-11-10T17:15:49.348Z,14.73
2022-11-10T17:21:10.967Z,14.74
2022-11-10T17:26:31.411Z,14.62
2022-11-10T17:31:54.084Z,14.65
2022-11-10T17:37:14.721Z,14.21
2022-11-10T17:42:35.170Z,14.03
2022-11-10T17:47:57.037Z,13.92
2022-11-10T17:53:19.498Z,14.11
2022-11-10T17:58:40.443Z,13.99
2022-11-10T18:04:02.737Z,13.83
2022-11-10T18:09:24.402Z,13.74
2022-11-10T18:14:45.031Z,13.69
2022-11-10T18:20:08.390Z,13.90
2022-11-10T18:25:29.185Z,13.89
2022-11-10T18:30:49.692Z,13.80
2022-11-10T18:36:11.951Z,13.77
2022-11-10T18:41:50.532Z,13.69
2022-11-10T18:47:12.220Z,13.54
2022-11-10T18:52:34.117Z,13.44
2022-11-10T18:57:54.739Z,13.43
2022-11-10T19:03:15.232Z,13.32
2022-11-10T19:08:37.303Z,13.21
2022-11-10T19:13:58.577Z,13.00
2022-11-10T19:19:18.869Z,13.01
2022-11-10T19:25:00.681Z,12.98
2022-11-10T19:30:21.547Z,12.86
2022-11-10T19:35:42.705Z,12.77
2022-11-10T19:41:05.396Z,12.52
2022-11-10T19:46:27.675Z,12.67
2022-11-10T19:51:48.981Z,12.39
2022-11-10T19:57:11.161Z,12.54
2022-11-10T20:02:31.470Z,12.62
2022-11-10T20:08:10.350Z,12.38
2022-11-10T20:13:32.599Z,12.61
2022-11-10T20:18:53.095Z,12.42
2022-11-10T20:24:13.908Z,12.36
2022-11-10T20:29:36.284Z,12.30
2022-11-10T20:34:56.897Z,12.30
2022-11-10T20:40:42.943Z,12.10
2022-11-10T20:45:59.144Z,12.21
2022-11-10T20:51:20.136Z,12.16
2022-11-10T20:56:40.806Z,12.24
2022-11-10T21:02:02.639Z,12.28
2022-11-10T21:07:23.294Z,12.36
2022-11-10T21:12:49.663Z,11.83
2022-11-10T21:18:11.536Z,11.78
2022-11-10T21:23:32.367Z,11.98
2022-11-10T21:28:53.397Z,12.17
2022-11-10T21:34:15.340Z,11.90
2022-11-10T21:39:36.072Z,11.71
2022-11-10T21:44:56.828Z,11.47
2022-11-10T21:50:18.868Z,11.61
2022-11-10T21:55:39.785Z,11.56
2022-11-10T22:01:00.821Z,11.78
2022-11-10T22:06:22.611Z,11.81
2022-11-10T22:12:01.472Z,12.07
2022-11-10T22:17:40.780Z,12.07
2022-11-10T22:23:02.819Z,12.03
2022-11-10T22:28:23.199Z,12.00
2022-11-10T22:33:43.852Z,11.95
2022-11-10T22:39:05.998Z,11.93
2022-11-10T22:44:26.303Z,11.82
2022-11-10T22:49:46.822Z,11.46
2022-11-10T22:55:09.433Z,10.90
2022-11-10T23:00:29.782Z,11.04
2022-11-10T23:05:55.096Z,11.25
2022-11-10T23:11:19.625Z,10.94
2022-11-10T23:16:40.183Z,11.03
2022-11-10T23:22:00.562Z,11.10
2022-11-10T23:27:22.257Z,11.18
2022-11-10T23:32:42.591Z,11.17
2022-11-10T23:38:02.904Z,11.03
2022-11-10T23:43:25.293Z,11.08
2022-11-10T23:48:46.614Z,10.96
2022-11-10T23:54:07.212Z,11.01
2022-11-10T23:59:28.933Z,11.01
